sensor_id;sensor_type;location;lat;lon;timestamp;P1;durP1;ratioP1;P2;durP2;ratioP2
66179;SDS011;52986;44.028;20.466;2023-06-24T00:01:27;23.85;;;5.20;;
66179;SDS011;52986;44.028;20.466;2023-06-24T00:03:53;23.73;;;5.30;;
66179;SDS011;52986;44.028;20.466;2023-06-24T00:06:19;22.67;;;5.50;;
66179;SDS011;52986;44.028;20.466;2023-06-24T00:08:45;21.25;;;5.10;;
66179;SDS011;52986;44.028;20.466;2023-06-24T00:11:11;21.85;;;4.85;;
66179;SDS011;52986;44.028;20.466;2023-06-24T00:13:38;14.57;;;4.65;;
66179;SDS011;52986;44.028;20.466;2023-06-24T00:16:04;22.10;;;4.78;;
66179;SDS011;52986;44.028;20.466;2023-06-24T00:18:31;22.63;;;4.18;;
66179;SDS011;52986;44.028;20.466;2023-06-24T00:20:57;15.07;;;4.03;;
66179;SDS011;52986;44.028;20.466;2023-06-24T00:23:23;16.58;;;3.72;;
66179;SDS011;52986;44.028;20.466;2023-06-24T00:25:52;18.95;;;4.13;;
66179;SDS011;52986;44.028;20.466;2023-06-24T00:28:18;12.90;;;3.38;;
66179;SDS011;52986;44.028;20.466;2023-06-24T00:30:44;13.13;;;3.78;;
66179;SDS011;52986;44.028;20.466;2023-06-24T00:33:09;16.15;;;3.63;;
66179;SDS011;52986;44.028;20.466;2023-06-24T00:35:36;13.85;;;3.55;;
66179;SDS011;52986;44.028;20.466;2023-06-24T00:38:02;14.15;;;3.58;;
66179;SDS011;52986;44.028;20.466;2023-06-24T00:40:28;12.55;;;3.58;;
66179;SDS011;52986;44.028;20.466;2023-06-24T00:42:54;15.73;;;3.67;;
66179;SDS011;52986;44.028;20.466;2023-06-24T00:45:20;15.88;;;3.50;;
66179;SDS011;52986;44.028;20.466;2023-06-24T00:47:46;13.13;;;3.45;;
66179;SDS011;52986;44.028;20.466;2023-06-24T00:50:12;9.85;;;3.25;;
66179;SDS011;52986;44.028;20.466;2023-06-24T00:52:37;11.18;;;3.40;;
66179;SDS011;52986;44.028;20.466;2023-06-24T00:55:07;13.63;;;3.30;;
66179;SDS011;52986;44.028;20.466;2023-06-24T00:57:33;15.18;;;3.30;;
66179;SDS011;52986;44.028;20.466;2023-06-24T01:00:03;16.70;;;3.72;;
66179;SDS011;52986;44.028;20.466;2023-06-24T01:02:35;14.60;;;4.28;;
66179;SDS011;52986;44.028;20.466;2023-06-24T01:05:03;12.43;;;3.55;;
66179;SDS011;52986;44.028;20.466;2023-06-24T01:07:32;12.60;;;3.30;;
66179;SDS011;52986;44.028;20.466;2023-06-24T01:10:01;12.30;;;3.50;;
66179;SDS011;52986;44.028;20.466;2023-06-24T01:12:27;12.45;;;3.10;;
66179;SDS011;52986;44.028;20.466;2023-06-24T01:14:53;11.43;;;3.30;;
66179;SDS011;52986;44.028;20.466;2023-06-24T01:17:23;11.38;;;3.20;;
66179;SDS011;52986;44.028;20.466;2023-06-24T01:36:15;10.32;;;3.40;;
66179;SDS011;52986;44.028;20.466;2023-06-24T01:38:43;13.13;;;3.80;;
66179;SDS011;52986;44.028;20.466;2023-06-24T01:41:13;13.80;;;3.60;;
66179;SDS011;52986;44.028;20.466;2023-06-24T01:43:43;12.73;;;3.40;;
66179;SDS011;52986;44.028;20.466;2023-06-24T01:46:10;11.02;;;3.50;;
66179;SDS011;52986;44.028;20.466;2023-06-24T01:48:37;12.05;;;3.45;;
66179;SDS011;52986;44.028;20.466;2023-06-24T01:51:17;10.27;;;3.42;;
66179;SDS011;52986;44.028;20.466;2023-06-24T01:53:48;11.05;;;3.47;;
66179;SDS011;52986;44.028;20.466;2023-06-24T01:56:16;12.77;;;3.72;;
66179;SDS011;52986;44.028;20.466;2023-06-24T01:58:43;16.40;;;3.90;;
66179;SDS011;52986;44.028;20.466;2023-06-24T02:01:10;11.93;;;3.53;;
66179;SDS011;52986;44.028;20.466;2023-06-24T02:03:37;10.57;;;3.50;;
66179;SDS011;52986;44.028;20.466;2023-06-24T02:06:04;9.50;;;3.17;;
66179;SDS011;52986;44.028;20.466;2023-06-24T02:08:32;15.90;;;3.65;;
66179;SDS011;52986;44.028;20.466;2023-06-24T02:10:59;13.43;;;3.55;;
66179;SDS011;52986;44.028;20.466;2023-06-24T02:13:27;11.00;;;3.45;;
66179;SDS011;52986;44.028;20.466;2023-06-24T02:15:56;11.77;;;3.80;;
66179;SDS011;52986;44.028;20.466;2023-06-24T02:18:23;11.48;;;3.28;;
66179;SDS011;52986;44.028;20.466;2023-06-24T02:20:51;10.38;;;3.17;;
66179;SDS011;52986;44.028;20.466;2023-06-24T02:23:17;10.68;;;3.13;;
66179;SDS011;52986;44.028;20.466;2023-06-24T02:25:44;10.30;;;3.58;;
66179;SDS011;52986;44.028;20.466;2023-06-24T02:28:10;11.45;;;3.17;;
66179;SDS011;52986;44.028;20.466;2023-06-24T02:30:36;10.20;;;3.45;;
66179;SDS011;52986;44.028;20.466;2023-06-24T02:33:03;10.98;;;3.22;;
66179;SDS011;52986;44.028;20.466;2023-06-24T02:35:29;11.00;;;3.33;;
66179;SDS011;52986;44.028;20.466;2023-06-24T02:37:54;14.02;;;3.70;;
66179;SDS011;52986;44.028;20.466;2023-06-24T02:40:20;9.45;;;3.30;;
66179;SDS011;52986;44.028;20.466;2023-06-24T02:42:45;12.68;;;3.30;;
66179;SDS011;52986;44.028;20.466;2023-06-24T02:45:11;9.00;;;3.40;;
66179;SDS011;52986;44.028;20.466;2023-06-24T02:47:37;11.35;;;3.10;;
66179;SDS011;52986;44.028;20.466;2023-06-24T02:50:04;10.80;;;3.35;;
66179;SDS011;52986;44.028;20.466;2023-06-24T02:52:32;8.95;;;2.80;;
66179;SDS011;52986;44.028;20.466;2023-06-24T02:54:58;9.77;;;3.10;;
66179;SDS011;52986;44.028;20.466;2023-06-24T02:57:25;11.35;;;3.63;;
66179;SDS011;52986;44.028;20.466;2023-06-24T02:59:51;10.05;;;3.20;;
66179;SDS011;52986;44.028;20.466;2023-06-24T03:02:17;10.20;;;3.38;;
66179;SDS011;52986;44.028;20.466;2023-06-24T03:04:43;9.52;;;3.25;;
66179;SDS011;52986;44.028;20.466;2023-06-24T03:07:10;15.25;;;3.53;;
66179;SDS011;52986;44.028;20.466;2023-06-24T03:09:36;9.70;;;3.30;;
66179;SDS011;52986;44.028;20.466;2023-06-24T03:12:01;9.80;;;3.45;;
66179;SDS011;52986;44.028;20.466;2023-06-24T03:14:27;11.48;;;3.50;;
66179;SDS011;52986;44.028;20.466;2023-06-24T03:16:52;9.82;;;3.40;;
66179;SDS011;52986;44.028;20.466;2023-06-24T03:19:18;11.55;;;3.20;;
66179;SDS011;52986;44.028;20.466;2023-06-24T03:21:43;11.68;;;3.50;;
66179;SDS011;52986;44.028;20.466;2023-06-24T03:24:08;8.38;;;3.22;;
66179;SDS011;52986;44.028;20.466;2023-06-24T03:26:34;10.77;;;3.50;;
66179;SDS011;52986;44.028;20.466;2023-06-24T03:29:01;8.23;;;3.03;;
66179;SDS011;52986;44.028;20.466;2023-06-24T03:31:26;8.70;;;3.10;;
66179;SDS011;52986;44.028;20.466;2023-06-24T03:33:52;9.65;;;3.10;;
66179;SDS011;52986;44.028;20.466;2023-06-24T03:36:17;9.18;;;3.03;;
66179;SDS011;52986;44.028;20.466;2023-06-24T03:38:43;10.32;;;3.40;;
66179;SDS011;52986;44.028;20.466;2023-06-24T03:41:08;9.45;;;3.13;;
66179;SDS011;52986;44.028;20.466;2023-06-24T03:43:33;8.13;;;3.00;;
66179;SDS011;52986;44.028;20.466;2023-06-24T03:45:59;8.88;;;3.00;;
66179;SDS011;52986;44.028;20.466;2023-06-24T03:48:25;8.90;;;3.13;;
66179;SDS011;52986;44.028;20.466;2023-06-24T03:50:50;8.63;;;3.30;;
66179;SDS011;52986;44.028;20.466;2023-06-24T03:53:16;11.48;;;3.10;;
66179;SDS011;52986;44.028;20.466;2023-06-24T03:55:41;8.77;;;3.25;;
66179;SDS011;52986;44.028;20.466;2023-06-24T03:58:07;9.50;;;3.30;;
66179;SDS011;52986;44.028;20.466;2023-06-24T04:00:33;12.52;;;3.15;;
66179;SDS011;52986;44.028;20.466;2023-06-24T04:02:58;12.13;;;3.30;;
66179;SDS011;52986;44.028;20.466;2023-06-24T04:05:25;10.23;;;3.53;;
66179;SDS011;52986;44.028;20.466;2023-06-24T04:07:51;8.27;;;3.03;;
66179;SDS011;52986;44.028;20.466;2023-06-24T04:10:17;10.38;;;3.10;;
66179;SDS011;52986;44.028;20.466;2023-06-24T04:12:43;9.60;;;3.20;;
66179;SDS011;52986;44.028;20.466;2023-06-24T04:15:09;14.68;;;3.40;;
66179;SDS011;52986;44.028;20.466;2023-06-24T04:17:34;11.13;;;3.10;;
66179;SDS011;52986;44.028;20.466;2023-06-24T04:20:00;8.63;;;2.92;;
66179;SDS011;52986;44.028;20.466;2023-06-24T04:22:27;12.65;;;3.63;;
66179;SDS011;52986;44.028;20.466;2023-06-24T04:24:52;12.07;;;3.15;;
66179;SDS011;52986;44.028;20.466;2023-06-24T04:27:17;7.37;;;2.87;;
66179;SDS011;52986;44.028;20.466;2023-06-24T04:29:43;13.20;;;3.35;;
66179;SDS011;52986;44.028;20.466;2023-06-24T04:32:08;9.52;;;3.08;;
66179;SDS011;52986;44.028;20.466;2023-06-24T04:34:33;9.25;;;3.30;;
66179;SDS011;52986;44.028;20.466;2023-06-24T04:36:59;8.70;;;3.10;;
66179;SDS011;52986;44.028;20.466;2023-06-24T04:39:24;10.73;;;3.50;;
66179;SDS011;52986;44.028;20.466;2023-06-24T04:41:50;11.95;;;3.42;;
66179;SDS011;52986;44.028;20.466;2023-06-24T04:44:15;11.27;;;3.50;;
66179;SDS011;52986;44.028;20.466;2023-06-24T04:46:40;9.00;;;3.38;;
66179;SDS011;52986;44.028;20.466;2023-06-24T04:49:06;9.15;;;3.33;;
66179;SDS011;52986;44.028;20.466;2023-06-24T04:51:32;9.00;;;3.35;;
66179;SDS011;52986;44.028;20.466;2023-06-24T04:53:57;11.48;;;4.30;;
66179;SDS011;52986;44.028;20.466;2023-06-24T04:56:23;9.27;;;3.60;;
66179;SDS011;52986;44.028;20.466;2023-06-24T04:58:49;12.43;;;3.53;;
66179;SDS011;52986;44.028;20.466;2023-06-24T05:01:15;10.68;;;3.20;;
66179;SDS011;52986;44.028;20.466;2023-06-24T05:03:40;10.00;;;3.40;;
66179;SDS011;52986;44.028;20.466;2023-06-24T05:06:06;9.02;;;3.40;;
66179;SDS011;52986;44.028;20.466;2023-06-24T05:08:31;9.07;;;3.63;;
66179;SDS011;52986;44.028;20.466;2023-06-24T05:10:56;9.63;;;3.58;;
66179;SDS011;52986;44.028;20.466;2023-06-24T05:13:22;10.48;;;3.53;;
66179;SDS011;52986;44.028;20.466;2023-06-24T05:15:48;15.48;;;3.60;;
66179;SDS011;52986;44.028;20.466;2023-06-24T05:18:13;17.92;;;4.43;;
66179;SDS011;52986;44.028;20.466;2023-06-24T05:20:39;12.68;;;4.05;;
66179;SDS011;52986;44.028;20.466;2023-06-24T05:23:04;13.10;;;3.90;;
66179;SDS011;52986;44.028;20.466;2023-06-24T05:25:29;11.50;;;3.70;;
66179;SDS011;52986;44.028;20.466;2023-06-24T05:27:55;18.77;;;4.38;;
66179;SDS011;52986;44.028;20.466;2023-06-24T05:30:20;10.13;;;3.60;;
66179;SDS011;52986;44.028;20.466;2023-06-24T05:32:45;10.45;;;4.07;;
66179;SDS011;52986;44.028;20.466;2023-06-24T05:35:12;11.68;;;3.80;;
66179;SDS011;52986;44.028;20.466;2023-06-24T05:37:37;9.40;;;3.85;;
66179;SDS011;52986;44.028;20.466;2023-06-24T05:40:03;10.45;;;3.85;;
66179;SDS011;52986;44.028;20.466;2023-06-24T05:42:30;11.75;;;4.00;;
66179;SDS011;52986;44.028;20.466;2023-06-24T05:44:55;11.48;;;4.25;;
66179;SDS011;52986;44.028;20.466;2023-06-24T05:47:21;17.50;;;4.40;;
66179;SDS011;52986;44.028;20.466;2023-06-24T05:49:46;11.57;;;3.93;;
66179;SDS011;52986;44.028;20.466;2023-06-24T05:52:11;11.20;;;3.80;;
66179;SDS011;52986;44.028;20.466;2023-06-24T05:54:37;16.77;;;3.65;;
66179;SDS011;52986;44.028;20.466;2023-06-24T05:57:02;8.82;;;3.35;;
66179;SDS011;52986;44.028;20.466;2023-06-24T05:59:31;8.75;;;3.10;;
66179;SDS011;52986;44.028;20.466;2023-06-24T06:01:57;10.05;;;3.35;;
66179;SDS011;52986;44.028;20.466;2023-06-24T06:04:22;10.85;;;3.58;;
66179;SDS011;52986;44.028;20.466;2023-06-24T06:06:47;11.07;;;3.40;;
66179;SDS011;52986;44.028;20.466;2023-06-24T06:09:13;10.75;;;3.30;;
66179;SDS011;52986;44.028;20.466;2023-06-24T06:11:38;10.10;;;3.20;;
66179;SDS011;52986;44.028;20.466;2023-06-24T06:14:03;8.65;;;3.33;;
66179;SDS011;52986;44.028;20.466;2023-06-24T06:16:29;10.75;;;3.15;;
66179;SDS011;52986;44.028;20.466;2023-06-24T06:18:54;10.10;;;3.22;;
66179;SDS011;52986;44.028;20.466;2023-06-24T06:21:20;10.25;;;3.53;;
66179;SDS011;52986;44.028;20.466;2023-06-24T06:23:45;12.88;;;3.70;;
66179;SDS011;52986;44.028;20.466;2023-06-24T06:26:10;14.23;;;4.13;;
66179;SDS011;52986;44.028;20.466;2023-06-24T06:28:36;10.98;;;3.63;;
66179;SDS011;52986;44.028;20.466;2023-06-24T06:31:01;10.73;;;3.85;;
66179;SDS011;52986;44.028;20.466;2023-06-24T06:33:26;11.57;;;4.13;;
66179;SDS011;52986;44.028;20.466;2023-06-24T06:35:52;10.15;;;4.07;;
66179;SDS011;52986;44.028;20.466;2023-06-24T06:38:17;9.88;;;4.25;;
66179;SDS011;52986;44.028;20.466;2023-06-24T06:40:42;15.52;;;5.55;;
66179;SDS011;52986;44.028;20.466;2023-06-24T06:43:08;10.82;;;5.90;;
66179;SDS011;52986;44.028;20.466;2023-06-24T06:45:33;15.07;;;6.00;;
66179;SDS011;52986;44.028;20.466;2023-06-24T06:47:58;14.38;;;6.47;;
66179;SDS011;52986;44.028;20.466;2023-06-24T06:50:24;16.40;;;7.47;;
66179;SDS011;52986;44.028;20.466;2023-06-24T06:52:49;15.77;;;8.52;;
66179;SDS011;52986;44.028;20.466;2023-06-24T06:55:14;16.15;;;8.05;;
66179;SDS011;52986;44.028;20.466;2023-06-24T06:57:40;15.80;;;9.07;;
66179;SDS011;52986;44.028;20.466;2023-06-24T07:00:05;17.40;;;9.43;;
66179;SDS011;52986;44.028;20.466;2023-06-24T07:02:31;19.73;;;10.07;;
66179;SDS011;52986;44.028;20.466;2023-06-24T07:04:57;21.33;;;10.82;;
66179;SDS011;52986;44.028;20.466;2023-06-24T07:07:22;16.70;;;9.85;;
66179;SDS011;52986;44.028;20.466;2023-06-24T07:09:47;21.55;;;11.10;;
66179;SDS011;52986;44.028;20.466;2023-06-24T07:12:13;19.15;;;10.70;;
66179;SDS011;52986;44.028;20.466;2023-06-24T07:14:38;20.73;;;11.32;;
66179;SDS011;52986;44.028;20.466;2023-06-24T07:17:04;21.63;;;12.13;;
66179;SDS011;52986;44.028;20.466;2023-06-24T07:19:30;19.35;;;11.30;;
66179;SDS011;52986;44.028;20.466;2023-06-24T07:21:55;19.38;;;11.60;;
66179;SDS011;52986;44.028;20.466;2023-06-24T07:24:20;20.63;;;11.27;;
66179;SDS011;52986;44.028;20.466;2023-06-24T07:26:46;21.15;;;11.65;;
66179;SDS011;52986;44.028;20.466;2023-06-24T07:29:11;20.15;;;11.65;;
66179;SDS011;52986;44.028;20.466;2023-06-24T07:31:37;19.52;;;11.40;;
66179;SDS011;52986;44.028;20.466;2023-06-24T07:34:02;19.85;;;11.27;;
66179;SDS011;52986;44.028;20.466;2023-06-24T07:36:28;19.33;;;11.77;;
66179;SDS011;52986;44.028;20.466;2023-06-24T07:38:53;21.85;;;11.90;;
66179;SDS011;52986;44.028;20.466;2023-06-24T07:41:18;26.20;;;13.10;;
66179;SDS011;52986;44.028;20.466;2023-06-24T07:43:44;19.60;;;11.80;;
66179;SDS011;52986;44.028;20.466;2023-06-24T07:46:09;21.13;;;11.88;;
66179;SDS011;52986;44.028;20.466;2023-06-24T07:48:35;24.85;;;12.05;;
66179;SDS011;52986;44.028;20.466;2023-06-24T07:51:00;17.92;;;11.23;;
66179;SDS011;52986;44.028;20.466;2023-06-24T07:53:25;26.02;;;13.07;;
66179;SDS011;52986;44.028;20.466;2023-06-24T07:55:51;22.77;;;12.93;;
66179;SDS011;52986;44.028;20.466;2023-06-24T07:58:16;22.88;;;14.15;;
66179;SDS011;52986;44.028;20.466;2023-06-24T08:00:44;21.83;;;13.85;;
66179;SDS011;52986;44.028;20.466;2023-06-24T08:03:09;25.35;;;15.82;;
66179;SDS011;52986;44.028;20.466;2023-06-24T08:05:35;25.67;;;15.38;;
66179;SDS011;52986;44.028;20.466;2023-06-24T08:08:00;26.85;;;15.55;;
66179;SDS011;52986;44.028;20.466;2023-06-24T08:10:25;29.35;;;15.15;;
66179;SDS011;52986;44.028;20.466;2023-06-24T08:12:57;25.77;;;15.27;;
66179;SDS011;52986;44.028;20.466;2023-06-24T08:15:22;27.60;;;17.00;;
66179;SDS011;52986;44.028;20.466;2023-06-24T08:17:54;27.25;;;15.30;;
66179;SDS011;52986;44.028;20.466;2023-06-24T08:20:20;23.90;;;16.02;;
66179;SDS011;52986;44.028;20.466;2023-06-24T08:22:46;28.13;;;16.90;;
66179;SDS011;52986;44.028;20.466;2023-06-24T08:25:11;25.33;;;16.17;;
66179;SDS011;52986;44.028;20.466;2023-06-24T08:27:37;25.63;;;15.82;;
66179;SDS011;52986;44.028;20.466;2023-06-24T08:30:03;27.35;;;16.65;;
66179;SDS011;52986;44.028;20.466;2023-06-24T08:32:32;26.88;;;16.85;;
66179;SDS011;52986;44.028;20.466;2023-06-24T08:34:58;28.73;;;17.02;;
66179;SDS011;52986;44.028;20.466;2023-06-24T08:37:23;32.95;;;16.85;;
66179;SDS011;52986;44.028;20.466;2023-06-24T08:39:49;30.08;;;16.35;;
66179;SDS011;52986;44.028;20.466;2023-06-24T08:42:14;26.40;;;16.65;;
66179;SDS011;52986;44.028;20.466;2023-06-24T08:44:40;26.77;;;16.17;;
66179;SDS011;52986;44.028;20.466;2023-06-24T08:47:05;29.70;;;16.20;;
66179;SDS011;52986;44.028;20.466;2023-06-24T08:49:31;30.52;;;17.50;;
66179;SDS011;52986;44.028;20.466;2023-06-24T08:52:03;33.72;;;15.77;;
66179;SDS011;52986;44.028;20.466;2023-06-24T08:54:34;32.58;;;15.77;;
66179;SDS011;52986;44.028;20.466;2023-06-24T08:57:01;25.73;;;15.70;;
66179;SDS011;52986;44.028;20.466;2023-06-24T08:59:30;23.55;;;15.27;;
66179;SDS011;52986;44.028;20.466;2023-06-24T09:01:56;25.52;;;15.52;;
66179;SDS011;52986;44.028;20.466;2023-06-24T09:04:21;25.67;;;14.80;;
66179;SDS011;52986;44.028;20.466;2023-06-24T09:06:47;27.23;;;15.68;;
66179;SDS011;52986;44.028;20.466;2023-06-24T09:09:18;26.65;;;15.13;;
66179;SDS011;52986;44.028;20.466;2023-06-24T09:11:55;26.10;;;16.27;;
66179;SDS011;52986;44.028;20.466;2023-06-24T09:14:22;26.00;;;16.08;;
66179;SDS011;52986;44.028;20.466;2023-06-24T09:16:56;24.83;;;15.70;;
66179;SDS011;52986;44.028;20.466;2023-06-24T09:19:23;27.15;;;17.20;;
66179;SDS011;52986;44.028;20.466;2023-06-24T09:21:50;26.65;;;16.55;;
66179;SDS011;52986;44.028;20.466;2023-06-24T09:24:17;28.60;;;16.70;;
66179;SDS011;52986;44.028;20.466;2023-06-24T09:26:43;31.38;;;17.02;;
66179;SDS011;52986;44.028;20.466;2023-06-24T09:29:10;27.33;;;16.42;;
66179;SDS011;52986;44.028;20.466;2023-06-24T09:31:45;28.88;;;16.98;;
66179;SDS011;52986;44.028;20.466;2023-06-24T09:34:14;36.78;;;18.02;;
66179;SDS011;52986;44.028;20.466;2023-06-24T09:36:44;34.00;;;18.40;;
66179;SDS011;52986;44.028;20.466;2023-06-24T09:39:10;31.13;;;19.27;;
66179;SDS011;52986;44.028;20.466;2023-06-24T09:41:35;30.38;;;18.85;;
66179;SDS011;52986;44.028;20.466;2023-06-24T09:44:01;34.67;;;20.23;;
66179;SDS011;52986;44.028;20.466;2023-06-24T09:46:28;33.00;;;19.02;;
66179;SDS011;52986;44.028;20.466;2023-06-24T09:48:55;31.38;;;19.27;;
66179;SDS011;52986;44.028;20.466;2023-06-24T09:51:20;33.70;;;19.02;;
66179;SDS011;52986;44.028;20.466;2023-06-24T09:53:47;32.45;;;19.02;;
66179;SDS011;52986;44.028;20.466;2023-06-24T09:56:17;32.55;;;19.10;;
66179;SDS011;52986;44.028;20.466;2023-06-24T09:58:43;32.15;;;18.90;;
66179;SDS011;52986;44.028;20.466;2023-06-24T10:01:10;30.40;;;19.35;;
66179;SDS011;52986;44.028;20.466;2023-06-24T10:03:36;29.65;;;19.45;;
66179;SDS011;52986;44.028;20.466;2023-06-24T10:06:04;31.55;;;19.05;;
66179;SDS011;52986;44.028;20.466;2023-06-24T10:08:32;31.83;;;19.05;;
66179;SDS011;52986;44.028;20.466;2023-06-24T10:10:58;29.65;;;18.42;;
66179;SDS011;52986;44.028;20.466;2023-06-24T10:13:24;30.75;;;19.17;;
66179;SDS011;52986;44.028;20.466;2023-06-24T10:15:50;33.95;;;19.13;;
66179;SDS011;52986;44.028;20.466;2023-06-24T10:21:11;29.65;;;17.23;;
66179;SDS011;52986;44.028;20.466;2023-06-24T10:23:40;27.80;;;16.98;;
66179;SDS011;52986;44.028;20.466;2023-06-24T10:26:25;29.58;;;16.15;;
66179;SDS011;52986;44.028;20.466;2023-06-24T10:29:14;25.30;;;15.68;;
66179;SDS011;52986;44.028;20.466;2023-06-24T10:34:22;26.90;;;15.57;;
66179;SDS011;52986;44.028;20.466;2023-06-24T10:36:55;25.58;;;16.38;;
66179;SDS011;52986;44.028;20.466;2023-06-24T10:44:50;27.40;;;16.60;;
66179;SDS011;52986;44.028;20.466;2023-06-24T10:47:17;26.13;;;15.57;;
66179;SDS011;52986;44.028;20.466;2023-06-24T10:49:42;26.67;;;16.58;;
66179;SDS011;52986;44.028;20.466;2023-06-24T10:52:11;24.70;;;15.05;;
66179;SDS011;52986;44.028;20.466;2023-06-24T10:54:38;23.98;;;15.35;;
66179;SDS011;52986;44.028;20.466;2023-06-24T10:57:04;24.88;;;15.68;;
66179;SDS011;52986;44.028;20.466;2023-06-24T11:02:28;24.02;;;14.75;;
66179;SDS011;52986;44.028;20.466;2023-06-24T11:04:55;24.88;;;16.13;;
66179;SDS011;52986;44.028;20.466;2023-06-24T11:07:23;23.45;;;14.65;;
66179;SDS011;52986;44.028;20.466;2023-06-24T11:12:19;22.70;;;13.68;;
66179;SDS011;52986;44.028;20.466;2023-06-24T11:14:48;21.42;;;13.27;;
66179;SDS011;52986;44.028;20.466;2023-06-24T11:17:14;22.92;;;13.77;;
66179;SDS011;52986;44.028;20.466;2023-06-24T11:19:39;23.08;;;13.90;;
66179;SDS011;52986;44.028;20.466;2023-06-24T11:22:06;21.23;;;13.48;;
66179;SDS011;52986;44.028;20.466;2023-06-24T11:24:32;21.38;;;12.73;;
66179;SDS011;52986;44.028;20.466;2023-06-24T11:26:58;22.20;;;13.52;;
66179;SDS011;52986;44.028;20.466;2023-06-24T11:29:24;22.37;;;13.87;;
66179;SDS011;52986;44.028;20.466;2023-06-24T11:31:50;21.10;;;13.52;;
66179;SDS011;52986;44.028;20.466;2023-06-24T11:34:16;20.85;;;12.98;;
66179;SDS011;52986;44.028;20.466;2023-06-24T11:36:42;21.65;;;13.02;;
66179;SDS011;52986;44.028;20.466;2023-06-24T11:39:07;21.50;;;13.10;;
66179;SDS011;52986;44.028;20.466;2023-06-24T11:41:33;23.10;;;12.63;;
66179;SDS011;52986;44.028;20.466;2023-06-24T11:43:58;24.00;;;13.65;;
66179;SDS011;52986;44.028;20.466;2023-06-24T11:46:27;21.17;;;12.15;;
66179;SDS011;52986;44.028;20.466;2023-06-24T11:49:05;22.17;;;12.45;;
66179;SDS011;52986;44.028;20.466;2023-06-24T11:51:31;22.67;;;13.43;;
66179;SDS011;52986;44.028;20.466;2023-06-24T11:54:01;24.73;;;14.30;;
66179;SDS011;52986;44.028;20.466;2023-06-24T11:57:00;24.65;;;14.05;;
66179;SDS011;52986;44.028;20.466;2023-06-24T11:59:22;24.65;;;14.52;;
66179;SDS011;52986;44.028;20.466;2023-06-24T12:01:53;25.83;;;14.20;;
66179;SDS011;52986;44.028;20.466;2023-06-24T12:04:21;25.20;;;13.82;;
66179;SDS011;52986;44.028;20.466;2023-06-24T12:06:52;24.70;;;14.85;;
66179;SDS011;52986;44.028;20.466;2023-06-24T12:09:17;23.88;;;13.88;;
66179;SDS011;52986;44.028;20.466;2023-06-24T12:11:43;25.70;;;14.05;;
66179;SDS011;52986;44.028;20.466;2023-06-24T12:14:08;22.45;;;13.93;;
66179;SDS011;52986;44.028;20.466;2023-06-24T12:16:34;21.85;;;12.35;;
66179;SDS011;52986;44.028;20.466;2023-06-24T12:18:59;21.83;;;12.45;;
66179;SDS011;52986;44.028;20.466;2023-06-24T12:21:24;23.55;;;13.68;;
66179;SDS011;52986;44.028;20.466;2023-06-24T12:23:50;22.95;;;13.02;;
66179;SDS011;52986;44.028;20.466;2023-06-24T12:26:15;21.60;;;12.65;;
66179;SDS011;52986;44.028;20.466;2023-06-24T12:28:41;22.60;;;13.70;;
66179;SDS011;52986;44.028;20.466;2023-06-24T12:31:06;27.35;;;15.20;;
66179;SDS011;52986;44.028;20.466;2023-06-24T12:33:32;27.25;;;16.27;;
66179;SDS011;52986;44.028;20.466;2023-06-24T12:35:58;29.65;;;17.95;;
66179;SDS011;52986;44.028;20.466;2023-06-24T12:38:24;30.50;;;16.48;;
66179;SDS011;52986;44.028;20.466;2023-06-24T12:40:49;27.85;;;16.85;;
66179;SDS011;52986;44.028;20.466;2023-06-24T12:43:15;26.80;;;15.63;;
66179;SDS011;52986;44.028;20.466;2023-06-24T12:45:41;27.08;;;16.25;;
66179;SDS011;52986;44.028;20.466;2023-06-24T12:48:10;31.77;;;17.77;;
66179;SDS011;52986;44.028;20.466;2023-06-24T12:50:36;32.00;;;17.40;;
66179;SDS011;52986;44.028;20.466;2023-06-24T12:53:01;30.42;;;17.52;;
66179;SDS011;52986;44.028;20.466;2023-06-24T12:55:28;28.52;;;16.52;;
66179;SDS011;52986;44.028;20.466;2023-06-24T12:57:54;26.95;;;16.20;;
66179;SDS011;52986;44.028;20.466;2023-06-24T13:00:20;27.30;;;17.10;;
66179;SDS011;52986;44.028;20.466;2023-06-24T13:02:46;30.05;;;17.52;;
66179;SDS011;52986;44.028;20.466;2023-06-24T13:05:12;29.75;;;17.48;;
66179;SDS011;52986;44.028;20.466;2023-06-24T13:07:37;29.90;;;18.20;;
66179;SDS011;52986;44.028;20.466;2023-06-24T13:10:03;30.45;;;17.88;;
66179;SDS011;52986;44.028;20.466;2023-06-24T13:12:31;28.27;;;17.02;;
66179;SDS011;52986;44.028;20.466;2023-06-24T13:14:57;29.92;;;16.88;;
66179;SDS011;52986;44.028;20.466;2023-06-24T13:17:22;31.95;;;17.30;;
66179;SDS011;52986;44.028;20.466;2023-06-24T13:19:48;30.55;;;17.25;;
66179;SDS011;52986;44.028;20.466;2023-06-24T13:22:13;27.02;;;16.88;;
66179;SDS011;52986;44.028;20.466;2023-06-24T13:24:38;28.80;;;16.77;;
66179;SDS011;52986;44.028;20.466;2023-06-24T13:27:04;27.17;;;16.95;;
66179;SDS011;52986;44.028;20.466;2023-06-24T13:29:29;25.33;;;15.90;;
66179;SDS011;52986;44.028;20.466;2023-06-24T13:31:55;32.67;;;16.20;;
66179;SDS011;52986;44.028;20.466;2023-06-24T13:34:20;33.22;;;16.92;;
66179;SDS011;52986;44.028;20.466;2023-06-24T13:36:46;24.63;;;15.63;;
66179;SDS011;52986;44.028;20.466;2023-06-24T13:39:12;25.55;;;16.25;;
66179;SDS011;52986;44.028;20.466;2023-06-24T13:41:38;25.02;;;16.95;;
66179;SDS011;52986;44.028;20.466;2023-06-24T13:44:04;23.88;;;14.57;;
66179;SDS011;52986;44.028;20.466;2023-06-24T13:46:30;25.55;;;15.65;;
66179;SDS011;52986;44.028;20.466;2023-06-24T13:48:56;21.58;;;14.40;;
66179;SDS011;52986;44.028;20.466;2023-06-24T13:51:23;23.33;;;14.60;;
66179;SDS011;52986;44.028;20.466;2023-06-24T13:53:49;24.80;;;15.10;;
66179;SDS011;52986;44.028;20.466;2023-06-24T13:56:19;25.55;;;14.73;;
66179;SDS011;52986;44.028;20.466;2023-06-24T13:58:45;33.28;;;15.05;;
66179;SDS011;52986;44.028;20.466;2023-06-24T14:01:11;24.30;;;14.65;;
66179;SDS011;52986;44.028;20.466;2023-06-24T14:03:37;22.80;;;14.57;;
66179;SDS011;52986;44.028;20.466;2023-06-24T14:06:02;25.73;;;14.82;;
66179;SDS011;52986;44.028;20.466;2023-06-24T14:08:29;25.25;;;14.85;;
66179;SDS011;52986;44.028;20.466;2023-06-24T14:10:55;23.02;;;15.35;;
66179;SDS011;52986;44.028;20.466;2023-06-24T14:13:21;22.60;;;13.95;;
66179;SDS011;52986;44.028;20.466;2023-06-24T14:15:47;22.67;;;13.77;;
66179;SDS011;52986;44.028;20.466;2023-06-24T14:18:13;23.77;;;14.00;;
66179;SDS011;52986;44.028;20.466;2023-06-24T14:20:38;22.20;;;14.48;;
66179;SDS011;52986;44.028;20.466;2023-06-24T14:23:04;23.27;;;14.18;;
66179;SDS011;52986;44.028;20.466;2023-06-24T14:25:30;22.42;;;13.43;;
66179;SDS011;52986;44.028;20.466;2023-06-24T14:27:56;22.20;;;14.60;;
66179;SDS011;52986;44.028;20.466;2023-06-24T14:30:21;20.70;;;13.02;;
66179;SDS011;52986;44.028;20.466;2023-06-24T14:32:46;21.80;;;13.85;;
66179;SDS011;52986;44.028;20.466;2023-06-24T14:35:12;23.05;;;13.57;;
66179;SDS011;52986;44.028;20.466;2023-06-24T14:37:37;23.63;;;14.73;;
66179;SDS011;52986;44.028;20.466;2023-06-24T14:40:03;21.17;;;13.10;;
66179;SDS011;52986;44.028;20.466;2023-06-24T14:42:29;22.67;;;12.18;;
66179;SDS011;52986;44.028;20.466;2023-06-24T14:44:54;18.70;;;11.15;;